createdAt,value
2022-09-16T00:00:13.719Z,11.50
2022-09-16T00:03:03.751Z,11.60
2022-09-16T00:05:33.831Z,11.50
2022-09-16T00:08:03.639Z,11.50
2022-09-16T00:10:35.891Z,11.60
2022-09-16T00:13:06.237Z,11.50
2022-09-16T00:15:35.857Z,11.50
2022-09-16T00:18:05.675Z,11.50
2022-09-16T00:20:35.883Z,11.50
2022-09-16T00:23:06.209Z,11.50
2022-09-16T00:25:38.619Z,11.50
2022-09-16T00:28:07.546Z,11.50
2022-09-16T00:30:38.023Z,11.50
2022-09-16T00:33:07.308Z,11.50
2022-09-16T00:35:36.929Z,11.50
2022-09-16T00:38:06.543Z,11.50
2022-09-16T00:40:36.021Z,11.50
2022-09-16T00:43:08.035Z,11.50
2022-09-16T00:45:38.023Z,11.50
2022-09-16T00:48:09.938Z,11.40
2022-09-16T00:50:43.268Z,11.50
2022-09-16T00:53:21.689Z,11.50
2022-09-16T00:55:52.644Z,11.60
2022-09-16T00:58:32.943Z,11.60
2022-09-16T01:01:03.330Z,11.60
2022-09-16T01:03:35.537Z,11.60
2022-09-16T01:06:06.170Z,11.50
2022-09-16T01:08:35.668Z,11.50
2022-09-16T01:11:04.969Z,11.60
2022-09-16T01:13:36.366Z,11.50
2022-09-16T01:16:11.749Z,11.50
2022-09-16T01:18:48.369Z,11.50
2022-09-16T01:21:40.540Z,11.50
2022-09-16T01:24:50.526Z,11.50
2022-09-16T01:27:45.700Z,11.40
2022-09-16T01:30:45.317Z,11.40
2022-09-16T01:33:22.831Z,11.40
2022-09-16T01:36:06.638Z,11.30
2022-09-16T01:38:58.413Z,11.30
2022-09-16T01:41:38.086Z,11.30
2022-09-16T01:44:21.377Z,11.30
2022-09-16T01:47:03.604Z,11.20
2022-09-16T01:49:42.633Z,11.20
2022-09-16T01:52:21.653Z,11.10
2022-09-16T01:54:55.561Z,11.10
2022-09-16T01:57:31.458Z,11.10
2022-09-16T02:00:04.269Z,11.10
2022-09-16T02:02:40.556Z,11.00
2022-09-16T02:05:14.016Z,11.00
2022-09-16T02:07:49.140Z,11.00
2022-09-16T02:10:24.047Z,11.00
2022-09-16T02:12:56.816Z,11.00
2022-09-16T02:15:29.006Z,11.00
2022-09-16T02:18:06.125Z,10.90
2022-09-16T02:20:40.265Z,11.00
2022-09-16T02:23:16.985Z,11.00
2022-09-16T02:25:49.647Z,10.90
2022-09-16T02:28:24.410Z,10.90
2022-09-16T02:30:56.934Z,10.90
2022-09-16T02:33:35.157Z,10.90
2022-09-16T02:36:06.366Z,10.90
2022-09-16T02:38:42.960Z,10.90
2022-09-16T02:41:15.150Z,10.90
2022-09-16T02:43:45.925Z,10.90
2022-09-16T02:46:24.353Z,10.90
2022-09-16T02:49:04.022Z,10.90
2022-09-16T02:51:40.317Z,10.90
2022-09-16T02:54:21.888Z,10.80
2022-09-16T02:56:51.602Z,10.80
2022-09-16T02:59:21.677Z,10.80
2022-09-16T03:01:51.217Z,10.80
2022-09-16T03:04:22.646Z,10.80
2022-09-16T03:06:52.534Z,10.80
2022-09-16T03:09:24.352Z,10.80
2022-09-16T03:12:16.567Z,10.80
2022-09-16T03:15:34.279Z,10.80
2022-09-16T03:18:24.356Z,10.80
2022-09-16T03:21:01.925Z,10.70
2022-09-16T03:23:41.970Z,10.70
2022-09-16T03:26:17.749Z,10.70
2022-09-16T03:28:56.373Z,10.60
2022-09-16T03:31:30.850Z,10.60
2022-09-16T03:34:07.781Z,10.60
2022-09-16T03:36:43.991Z,10.60
2022-09-16T03:39:14.862Z,10.60
2022-09-16T03:41:45.388Z,10.50
2022-09-16T03:44:15.562Z,10.60
2022-09-16T03:46:45.397Z,10.50
2022-09-16T03:49:14.858Z,10.50
2022-09-16T03:51:46.644Z,10.50
2022-09-16T03:54:15.890Z,10.50
2022-09-16T03:56:46.109Z,10.50
2022-09-16T03:59:15.478Z,10.50
2022-09-16T04:01:45.698Z,10.50
2022-09-16T04:04:15.601Z,10.50
2022-09-16T04:06:46.467Z,10.50
2022-09-16T04:09:17.189Z,10.50
2022-09-16T04:11:46.697Z,10.50
2022-09-16T04:14:16.150Z,10.50
2022-09-16T04:16:45.842Z,10.50
2022-09-16T04:19:15.943Z,10.50
2022-09-16T04:21:46.722Z,10.50
2022-09-16T04:24:16.282Z,10.50
2022-09-16T04:26:45.891Z,10.50
2022-09-16T04:29:16.026Z,10.50
2022-09-16T04:31:45.685Z,10.50
2022-09-16T04:34:15.328Z,10.60
2022-09-16T04:36:46.234Z,10.60
2022-09-16T04:39:16.474Z,10.60
2022-09-16T04:41:45.737Z,10.70
2022-09-16T04:44:15.486Z,10.70
2022-09-16T04:46:45.277Z,10.80
2022-09-16T04:49:14.937Z,10.80
2022-09-16T04:51:46.085Z,10.90
2022-09-16T04:54:16.102Z,10.90
2022-09-16T04:56:45.376Z,10.80
2022-09-16T04:59:14.645Z,10.90
2022-09-16T05:01:44.225Z,10.80
2022-09-16T05:04:13.537Z,10.80
2022-09-16T05:06:43.298Z,10.80
2022-09-16T05:09:15.118Z,10.70
2022-09-16T05:11:44.360Z,10.70
2022-09-16T05:14:17.073Z,10.70
2022-09-16T05:16:47.163Z,10.70
2022-09-16T05:19:17.189Z,10.70
2022-09-16T05:21:46.518Z,10.80
2022-09-16T05:24:17.345Z,10.80
2022-09-16T05:26:46.890Z,10.80
2022-09-16T05:29:18.779Z,10.80
2022-09-16T05:31:48.830Z,10.80
2022-09-16T05:34:21.665Z,10.80
2022-09-16T05:36:54.289Z,10.80
2022-09-16T05:39:26.570Z,10.80
2022-09-16T05:41:59.054Z,10.80
2022-09-16T05:44:29.584Z,10.80
2022-09-16T05:46:59.686Z,10.80
2022-09-16T05:49:28.927Z,10.80
2022-09-16T05:51:58.968Z,10.90
2022-09-16T05:54:31.721Z,10.90
2022-09-16T05:57:05.989Z,11.00
2022-09-16T05:59:36.866Z,11.00
2022-09-16T06:02:06.227Z,11.00
2022-09-16T06:04:35.941Z,11.10
2022-09-16T06:07:07.484Z,11.10
2022-09-16T06:09:38.093Z,11.30
2022-09-16T06:12:08.265Z,11.40
2022-09-16T06:14:37.705Z,11.40
2022-09-16T06:17:07.046Z,11.50
2022-09-16T06:19:37.095Z,11.60
2022-09-16T06:22:06.568Z,11.60
2022-09-16T06:24:36.022Z,11.60
2022-09-16T06:27:07.362Z,11.80
2022-09-16T06:29:36.838Z,11.70
2022-09-16T06:32:07.300Z,11.70
2022-09-16T06:34:36.702Z,11.90
2022-09-16T06:37:06.962Z,12.00
2022-09-16T06:39:36.846Z,12.10
2022-09-16T06:42:09.158Z,12.10
2022-09-16T06:44:38.809Z,12.00
2022-09-16T06:47:08.250Z,11.90
2022-09-16T06:49:37.554Z,11.90
2022-09-16T06:52:09.692Z,12.00
2022-09-16T06:54:39.082Z,12.00
2022-09-16T06:57:12.384Z,12.00
2022-09-16T06:59:42.089Z,11.90
2022-09-16T07:02:12.763Z,11.90
2022-09-16T07:04:42.292Z,11.80
2022-09-16T07:07:12.213Z,11.80
2022-09-16T07:09:42.315Z,11.80
2022-09-16T07:12:17.450Z,11.90
2022-09-16T07:14:49.163Z,11.90
2022-09-16T07:17:18.415Z,11.90
2022-09-16T07:19:48.997Z,11.90
2022-09-16T07:22:19.426Z,11.90
2022-09-16T07:24:48.682Z,11.80
2022-09-16T07:27:19.520Z,11.80
2022-09-16T07:29:49.361Z,11.90
2022-09-16T07:32:18.840Z,12.10
2022-09-16T07:34:48.313Z,12.20
2022-09-16T07:37:18.761Z,12.40
2022-09-16T07:39:48.291Z,12.50
2022-09-16T07:42:19.250Z,12.60
2022-09-16T07:44:48.968Z,12.60
2022-09-16T07:47:22.125Z,12.60
2022-09-16T07:49:56.225Z,12.50
2022-09-16T07:52:29.563Z,12.50
2022-09-16T07:54:59.189Z,12.40
2022-09-16T07:57:30.173Z,12.40
2022-09-16T07:59:59.994Z,12.40
2022-09-16T08:02:29.976Z,12.40
2022-09-16T08:04:59.482Z,12.30
2022-09-16T08:07:29.342Z,12.40
2022-09-16T08:09:58.677Z,12.40
2022-09-16T08:12:32.625Z,12.50
2022-09-16T08:15:02.460Z,12.50
2022-09-16T08:17:33.489Z,12.60
2022-09-16T08:20:04.573Z,12.80
2022-09-16T08:22:34.229Z,12.80
2022-09-16T08:25:03.826Z,12.90
2022-09-16T08:27:36.779Z,12.90
2022-09-16T08:30:07.077Z,13.00
2022-09-16T08:32:36.585Z,13.20
2022-09-16T08:35:06.842Z,13.40
2022-09-16T08:37:37.401Z,13.50
2022-09-16T08:40:08.538Z,13.70
2022-09-16T08:42:54.501Z,13.90
2022-09-16T08:45:31.431Z,14.20
2022-09-16T08:48:15.060Z,14.20
2022-09-16T08:50:48.029Z,14.30
2022-09-16T08:53:22.855Z,14.40
2022-09-16T08:55:54.321Z,14.20
2022-09-16T08:58:27.426Z,14.10
2022-09-16T09:01:02.300Z,14.10
2022-09-16T09:03:41.350Z,14.20
2022-09-16T09:06:24.891Z,14.30
2022-09-16T09:09:01.385Z,14.40
2022-09-16T09:11:39.908Z,14.40
2022-09-16T09:14:24.564Z,14.30
2022-09-16T09:17:00.290Z,14.20
2022-09-16T09:19:43.009Z,14.00
2022-09-16T09:22:28.845Z,14.00
2022-09-16T09:25:22.210Z,13.90
2022-09-16T09:28:04.363Z,14.00
2022-09-16T09:30:38.419Z,14.00
2022-09-16T09:33:45.048Z,14.00
2022-09-16T09:36:31.093Z,14.10
2022-09-16T09:39:20.486Z,14.20
2022-09-16T09:41:54.365Z,14.10
2022-09-16T09:44:51.215Z,14.10
2022-09-16T09:47:26.838Z,14.20
2022-09-16T09:50:00.345Z,14.50
2022-09-16T09:52:34.436Z,14.80
2022-09-16T09:55:16.657Z,15.10
2022-09-16T09:57:59.518Z,15.00
2022-09-16T10:00:29.146Z,14.80
2022-09-16T10:03:08.428Z,14.60
2022-09-16T10:05:38.335Z,14.60
2022-09-16T10:08:16.703Z,14.60
2022-09-16T10:10:52.823Z,14.60
2022-09-16T10:13:23.655Z,14.60
2022-09-16T10:15:57.306Z,14.70
2022-09-16T10:18:33.880Z,14.80
2022-09-16T10:21:07.344Z,15.00
2022-09-16T10:23:39.563Z,15.10
2022-09-16T10:26:21.492Z,15.00
2022-09-16T10:28:59.290Z,15.00
2022-09-16T10:31:34.464Z,15.00
2022-09-16T10:34:13.906Z,14.90
2022-09-16T10:36:44.070Z,15.00
2022-09-16T10:39:25.019Z,15.20
2022-09-16T10:41:55.140Z,15.30
2022-09-16T10:44:29.220Z,15.60
2022-09-16T10:47:02.196Z,16.20
2022-09-16T10:49:40.435Z,16.70
2022-09-16T10:52:15.913Z,17.00
2022-09-16T10:54:46.385Z,17.30
2022-09-16T10:57:25.958Z,17.60
2022-09-16T11:00:04.392Z,17.20
2022-09-16T11:03:12.772Z,16.70
2022-09-16T11:05:54.356Z,16.30
2022-09-16T11:08:36.633Z,16.00
2022-09-16T11:11:14.066Z,15.70
2022-09-16T11:13:53.043Z,16.60
2022-09-16T11:16:37.482Z,17.00
2022-09-16T11:19:12.102Z,17.20
2022-09-16T11:22:12.510Z,17.40
2022-09-16T11:24:53.326Z,16.50
2022-09-16T11:27:34.534Z,15.60
2022-09-16T11:30:13.826Z,15.00
2022-09-16T11:33:06.290Z,14.60
2022-09-16T11:35:45.983Z,14.40
2022-09-16T11:38:25.765Z,14.10
2022-09-16T11:41:00.709Z,13.30
2022-09-16T11:43:53.327Z,13.50
2022-09-16T11:46:30.116Z,14.10
2022-09-16T11:49:10.532Z,14.80
2022-09-16T11:51:56.797Z,14.80
2022-09-16T11:54:49.712Z,14.90
2022-09-16T11:57:23.189Z,15.50
2022-09-16T11:59:57.218Z,16.20
2022-09-16T12:02:31.329Z,17.00
2022-09-16T12:05:04.804Z,17.60
2022-09-16T12:07:39.957Z,17.60
2022-09-16T12:10:19.600Z,17.40
2022-09-16T12:12:54.363Z,16.30
2022-09-16T12:15:27.743Z,15.70
2022-09-16T12:18:05.534Z,15.50
2022-09-16T12:20:39.416Z,15.10
2022-09-16T12:23:17.608Z,15.00
2022-09-16T12:26:00.986Z,15.10
2022-09-16T12:28:36.178Z,15.40
2022-09-16T12:31:21.697Z,15.60
2022-09-16T12:33:58.078Z,15.70
2022-09-16T12:36:31.534Z,15.80
2022-09-16T12:39:02.027Z,16.00
2022-09-16T12:42:03.768Z,16.40
2022-09-16T12:45:08.313Z,17.20
2022-09-16T12:48:04.517Z,17.90
2022-09-16T12:51:05.438Z,18.90
2022-09-16T12:54:00.874Z,19.10
2022-09-16T12:56:50.720Z,18.80
2022-09-16T12:59:47.459Z,18.50
2022-09-16T13:02:20.569Z,18.40
2022-09-16T13:04:53.033Z,17.80
2022-09-16T13:07:25.739Z,17.00
2022-09-16T13:10:04.329Z,16.60
2022-09-16T13:12:43.737Z,16.90
2022-09-16T13:15:28.832Z,17.30
2022-09-16T13:18:09.393Z,17.90
2022-09-16T13:20:43.269Z,18.50
2022-09-16T13:23:18.680Z,18.60
2022-09-16T13:25:52.256Z,18.70
2022-09-16T13:28:36.873Z,17.80
2022-09-16T13:31:23.567Z,16.90
2022-09-16T13:34:14.143Z,17.00
2022-09-16T13:36:43.515Z,17.40
2022-09-16T13:39:15.236Z,17.60
2022-09-16T13:41:47.097Z,17.90
2022-09-16T13:44:41.627Z,18.50
2022-09-16T13:47:19.898Z,18.80
2022-09-16T13:49:52.794Z,19.00
2022-09-16T13:52:26.070Z,19.60
2022-09-16T13:55:12.984Z,19.20
2022-09-16T13:57:58.711Z,18.90
2022-09-16T14:00:37.945Z,18.50
2022-09-16T14:03:33.310Z,18.20
2022-09-16T14:06:32.119Z,17.50
2022-09-16T14:09:07.655Z,16.90
2022-09-16T14:11:47.241Z,16.80
2022-09-16T14:14:45.865Z,17.10
2022-09-16T14:17:22.318Z,16.80
2022-09-16T14:19:54.240Z,16.40
2022-09-16T14:22:27.082Z,16.00
2022-09-16T14:25:06.869Z,15.60
2022-09-16T14:27:47.358Z,15.30
2022-09-16T14:30:19.442Z,15.20
2022-09-16T14:32:51.618Z,15.20
2022-09-16T14:35:24.554Z,15.10
2022-09-16T14:37:56.835Z,15.00
2022-09-16T14:40:28.862Z,15.00
2022-09-16T14:43:03.500Z,14.80
2022-09-16T14:45:34.181Z,14.70
2022-09-16T14:48:09.408Z,14.80
2022-09-16T14:50:41.664Z,14.80
2022-09-16T14:53:35.747Z,14.70
2022-09-16T14:56:07.717Z,14.70
2022-09-16T14:58:38.719Z,14.80
2022-09-16T15:01:12.176Z,15.20
2022-09-16T15:03:49.026Z,15.40
2022-09-16T15:06:21.721Z,15.40
2022-09-16T15:08:54.803Z,15.30
2022-09-16T15:11:48.225Z,15.60
2022-09-16T15:14:19.074Z,16.10
2022-09-16T15:16:50.866Z,16.30
2022-09-16T15:19:26.826Z,16.80
2022-09-16T15:21:58.162Z,17.00
2022-09-16T15:24:31.833Z,16.80
2022-09-16T15:27:01.908Z,16.10
2022-09-16T15:29:34.213Z,15.70
2022-09-16T15:32:19.819Z,15.40
2022-09-16T15:35:06.333Z,15.20
2022-09-16T15:37:36.979Z,15.30
2022-09-16T15:40:23.107Z,15.00
2022-09-16T15:43:13.111Z,14.70
2022-09-16T15:45:44.170Z,14.30
2022-09-16T15:48:20.089Z,14.10
2022-09-16T15:50:53.326Z,13.70
2022-09-16T15:53:35.525Z,13.70
2022-09-16T15:56:09.649Z,13.50
2022-09-16T15:58:42.442Z,13.40
2022-09-16T16:01:17.049Z,13.30
2022-09-16T16:04:05.717Z,13.30
2022-09-16T16:06:56.196Z,13.20
2022-09-16T16:09:41.510Z,13.20
2022-09-16T16:12:16.646Z,13.10
2022-09-16T16:14:46.893Z,13.10
2022-09-16T16:17:18.225Z,13.00
2022-09-16T16:19:50.087Z,13.00
2022-09-16T16:22:21.403Z,12.90
2022-09-16T16:24:50.955Z,12.90
2022-09-16T16:27:20.821Z,12.90
2022-09-16T16:29:50.266Z,12.90
2022-09-16T16:32:19.950Z,12.90
2022-09-16T16:34:51.530Z,12.90
2022-09-16T16:37:44.847Z,12.80
2022-09-16T16:40:13.886Z,12.90
2022-09-16T16:42:43.954Z,12.80
2022-09-16T16:45:14.401Z,12.80
2022-09-16T16:47:44.324Z,12.80
2022-09-16T16:50:13.608Z,12.70
2022-09-16T16:52:44.651Z,12.80
2022-09-16T16:55:14.039Z,12.80
2022-09-16T16:57:44.487Z,12.80
2022-09-16T17:00:16.354Z,12.80
2022-09-16T17:02:45.994Z,12.80
2022-09-16T17:05:16.016Z,12.90
2022-09-16T17:07:46.772Z,12.90
2022-09-16T17:10:16.546Z,12.80
2022-09-16T17:12:46.623Z,12.80
2022-09-16T17:15:15.945Z,12.90
2022-09-16T17:17:45.468Z,12.80
2022-09-16T17:20:14.738Z,12.90
2022-09-16T17:22:45.703Z,12.90
2022-09-16T17:25:15.432Z,12.80
2022-09-16T17:27:44.690Z,12.80
2022-09-16T17:30:15.209Z,12.80
2022-09-16T17:32:45.210Z,12.80
2022-09-16T17:35:14.469Z,12.80
2022-09-16T17:37:45.546Z,12.70
2022-09-16T17:40:15.375Z,12.70
2022-09-16T17:42:44.774Z,12.70
2022-09-16T17:45:14.551Z,12.70
2022-09-16T17:47:44.718Z,12.70
2022-09-16T17:50:14.637Z,12.70
2022-09-16T17:52:45.777Z,12.70
2022-09-16T17:55:15.512Z,12.80
2022-09-16T17:57:45.314Z,12.80
2022-09-16T18:00:16.314Z,12.80
2022-09-16T18:02:46.238Z,12.90
2022-09-16T18:05:15.847Z,12.80
2022-09-16T18:07:48.723Z,12.90
2022-09-16T18:10:18.329Z,12.80
2022-09-16T18:12:48.095Z,12.90
2022-09-16T18:15:17.597Z,12.80
2022-09-16T18:17:47.916Z,12.80
2022-09-16T18:20:17.379Z,12.90
2022-09-16T18:22:48.851Z,12.80
2022-09-16T18:25:18.523Z,12.70
2022-09-16T18:27:48.306Z,12.60
2022-09-16T18:30:17.932Z,12.50
2022-09-16T18:32:47.712Z,12.40
2022-09-16T18:35:17.230Z,12.40
2022-09-16T18:37:48.338Z,12.40
2022-09-16T18:40:18.396Z,12.30
2022-09-16T18:42:47.889Z,12.30
2022-09-16T18:45:17.361Z,12.30
2022-09-16T18:47:46.976Z,12.30
2022-09-16T18:50:17.234Z,12.30
2022-09-16T18:52:50.234Z,12.20
2022-09-16T18:55:19.762Z,12.00
2022-09-16T18:57:49.063Z,12.00
2022-09-16T19:00:18.650Z,11.90
2022-09-16T19:02:52.144Z,11.90
2022-09-16T19:05:21.771Z,11.90
2022-09-16T19:07:53.422Z,11.90
2022-09-16T19:10:22.794Z,11.90
2022-09-16T19:12:52.480Z,12.00
2022-09-16T19:15:22.534Z,12.00
2022-09-16T19:17:51.920Z,12.00
2022-09-16T19:20:21.841Z,11.90
2022-09-16T19:22:52.605Z,11.80
2022-09-16T19:25:22.073Z,11.80
2022-09-16T19:27:51.620Z,11.60
2022-09-16T19:30:22.566Z,11.70
2022-09-16T19:32:52.260Z,11.70
2022-09-16T19:35:26.747Z,11.70
2022-09-16T19:37:59.761Z,11.50
2022-09-16T19:40:30.175Z,11.80
2022-09-16T19:42:59.575Z,11.80
2022-09-16T19:45:29.053Z,11.80
2022-09-16T19:47:59.005Z,11.90
2022-09-16T19:50:28.659Z,11.80
2022-09-16T19:52:59.410Z,11.80
2022-09-16T19:55:29.331Z,11.60
2022-09-16T19:57:58.561Z,11.40
2022-09-16T20:00:41.492Z,11.30
2022-09-16T20:03:18.161Z,11.20
2022-09-16T20:05:47.593Z,11.10
2022-09-16T20:08:18.408Z,11.00
2022-09-16T20:10:48.084Z,11.10
2022-09-16T20:13:17.769Z,11.10
2022-09-16T20:15:47.205Z,11.00
2022-09-16T20:18:16.751Z,11.00
2022-09-16T20:20:49.227Z,11.00
2022-09-16T20:23:20.899Z,11.00
2022-09-16T20:25:55.832Z,10.90
2022-09-16T20:28:25.713Z,10.90
2022-09-16T20:30:54.950Z,10.80
2022-09-16T20:33:24.281Z,10.80
2022-09-16T20:35:54.524Z,10.80
2022-09-16T20:38:25.711Z,10.70
2022-09-16T20:40:55.578Z,10.80
2022-09-16T20:43:25.624Z,10.70
2022-09-16T20:45:54.922Z,10.60
2022-09-16T20:48:24.601Z,10.60
2022-09-16T20:50:53.952Z,10.60
2022-09-16T20:53:24.829Z,10.60
2022-09-16T20:55:54.695Z,10.60
2022-09-16T20:58:24.210Z,10.50
2022-09-16T21:00:53.627Z,10.60
2022-09-16T21:03:23.464Z,10.60
2022-09-16T21:05:52.685Z,10.50
2022-09-16T21:08:22.170Z,10.50
2022-09-16T21:10:53.614Z,10.50
2022-09-16T21:13:25.256Z,10.50
2022-09-16T21:15:58.673Z,10.60
2022-09-16T21:18:29.198Z,10.60
2022-09-16T21:21:02.180Z,10.60
2022-09-16T21:23:31.794Z,10.60
2022-09-16T21:26:06.942Z,10.70
2022-09-16T21:28:36.604Z,10.70
2022-09-16T21:31:16.055Z,10.70
2022-09-16T21:33:46.245Z,10.70
2022-09-16T21:36:16.162Z,10.80
2022-09-16T21:38:45.998Z,10.80
2022-09-16T21:41:18.563Z,10.80
2022-09-16T21:43:51.662Z,10.80
2022-09-16T21:46:23.046Z,10.80
2022-09-16T21:48:53.266Z,10.80
2022-09-16T21:51:23.064Z,10.80
2022-09-16T21:53:52.629Z,10.80
2022-09-16T21:56:24.781Z,10.80
2022-09-16T21:58:56.586Z,10.80
2022-09-16T22:01:28.256Z,10.80
2022-09-16T22:03:59.242Z,10.80
2022-09-16T22:06:29.621Z,10.80
2022-09-16T22:09:01.245Z,10.80
2022-09-16T22:11:34.449Z,10.80
2022-09-16T22:14:04.716Z,10.80
2022-09-16T22:16:37.468Z,10.80
2022-09-16T22:19:08.625Z,10.80
2022-09-16T22:21:41.543Z,10.80
2022-09-16T22:24:11.778Z,10.80
2022-09-16T22:26:43.314Z,10.80
2022-09-16T22:29:13.693Z,10.90
2022-09-16T22:31:43.787Z,10.90
2022-09-16T22:34:13.478Z,10.90
2022-09-16T22:36:42.782Z,10.90
2022-09-16T22:39:15.615Z,10.90
2022-09-16T22:41:46.438Z,11.00
2022-09-16T22:44:16.233Z,10.90
2022-09-16T22:46:46.957Z,10.90
2022-09-16T22:49:17.733Z,10.90
2022-09-16T22:51:47.381Z,11.00
2022-09-16T22:54:17.366Z,11.00
2022-09-16T22:56:48.565Z,11.00
2022-09-16T22:59:18.417Z,10.90
2022-09-16T23:01:49.056Z,11.00
2022-09-16T23:04:18.946Z,11.00
2022-09-16T23:06:48.755Z,11.00
2022-09-16T23:09:18.429Z,11.00
2022-09-16T23:11:49.242Z,11.00
2022-09-16T23:14:21.948Z,11.00
2022-09-16T23:16:51.218Z,11.00
2022-09-16T23:19:21.915Z,11.00
2022-09-16T23:21:51.478Z,11.00
2022-09-16T23:24:22.229Z,11.00
2022-09-16T23:26:53.251Z,11.00
2022-09-16T23:29:22.864Z,11.00
2022-09-16T23:31:52.756Z,10.90
2022-09-16T23:34:23.455Z,10.90
2022-09-16T23:36:52.734Z,10.90
2022-09-16T23:39:22.535Z,10.90
2022-09-16T23:41:53.267Z,10.90
2022-09-16T23:44:25.890Z,10.90
2022-09-16T23:46:55.282Z,10.90
2022-09-16T23:49:25.078Z,10.90
2022-09-16T23:51:54.378Z,10.90
2022-09-16T23:54:24.013Z,10.90
2022-09-16T23:56:55.578Z,10.90
2022-09-16T23:59:25.028Z,10.90
